Terminal Aerodrome Forecast
Issued by NWS

Home | Current Version | Previous Version | Text Only | Print | Product List | Glossary On
Versions: 1 2 3 4 5 6 7 8 9 10 11 12 13 14 15 16 17 18 19 20 21 22 23 24 25 26 27 28 29 30 31 32 33 34 35 36 37 38 39 40 41 42 43 44 45 46 47 48 49 50
000
FTUS43 KMKX 201740
TAFUES
TAF
KUES 201740Z 2018/2118 24005KT 4SM -SHRA BR OVC008
      TEMPO 2018/2020 1SM +SHRA BR BKN005
     FM210000 29007KT 5SM BR VCSH OVC010
     FM210300 30010KT P6SM SCT015 OVC040
     FM210600 31012KT P6SM BKN050
     FM211200 31011KT P6SM SCT250=

USA.gov is the U.S. government's official web portal to all federal, state and local government web resources and services.